Rapid City Regional Airport
KRAP : now visible

Airfield :











YOU CAN JOIN US ON...

 
LOGIN :

Register | Disclaimer

   EN    FR    IT 

 









Legend :    VFR   Marginal VFR   IFR   Intensive IFR   Very Intensive IFR
Visi :
Ceiling :
>= 8 km
>= 3000ft
5 to 8 km
1000 to 3000 ft
1500m to 5 km
500 to 1000 ft
800 to 1500m
200 to 500 ft
< 800m
< 200 ft
Symbols :   Thunderstorms  Fog  Heavy snow  Heavy precipitations  Wind > 20 kt






- Airport Elevation : 3204 ft
- IATA code : RAP


KRAP - Rapid City Regional

CURRENT METAR :
  • 282152Z VRB03KT 10SM CLR 23/08 A3017 RMK AO2 SLP208 T02330078 $

EXPIRED METARs :
  • 282052Z VRB06KT 10SM CLR 23/07 A3018 RMK AO2 SLP209 T02330072 57010 $
  • 281952Z 11005KT 10SM CLR 23/07 A3019 RMK AO2 SLP212 T02330067 $
  • 281852Z 08007KT 10SM CLR 23/06 A3021 RMK AO2 SLP218 T02280061 $
  • 281752Z COR 06009KT 10SM CLR 22/05 A3022 RMK AO2 SLP220 T02220050 10228 20100 58006 $

TAF KRAP
Valid from the 28 at 18:00 until the 29 at 18:00 UTC


281720Z 2818/2918 11009KT P6SM SKC
FM290600 15008KT P6SM SKC
FM291400 17014KT P6SM SCT150
KZDV FIR / North America



MET'MAP, your aeronautical weather chart ! - Copyright ORBIFLY December 2007 - Disclaimer

ORBIFLY MET'MAP TEAM :

Programming & Development : Alexandra Zaïnal
Original concept : Baudouin d'Aumeries
Technical & hardware support : Manuel Goepfert
Assistance : Marc-Olivier Méhu




SOURCES & CREDITS :

   NOAA       Earth
Advisory